createdAt,value
2023-05-02T00:04:58.407Z,98546.50
2023-05-02T00:10:02.816Z,98544.27
2023-05-02T00:15:05.237Z,98536.98
2023-05-02T00:20:08.966Z,98537.11
2023-05-02T00:25:15.510Z,98529.13
2023-05-02T00:30:17.822Z,98523.63
2023-05-02T00:35:19.280Z,98523.41
2023-05-02T00:40:20.972Z,98522.25
2023-05-02T00:45:22.547Z,98518.17
2023-05-02T00:51:23.578Z,98516.41
2023-05-02T00:57:44.576Z,98516.39
2023-05-02T01:04:05.673Z,98514.98
2023-05-02T01:10:31.793Z,98513.34
2023-05-02T01:16:52.911Z,98520.05
2023-05-02T01:23:13.957Z,98519.48
2023-05-02T01:28:47.643Z,98521.70
2023-05-02T01:33:51.080Z,98518.78
2023-05-02T01:38:55.221Z,98514.93
2023-05-02T01:43:58.309Z,98517.69
2023-05-02T01:49:03.273Z,98516.13
2023-05-02T01:54:08.007Z,98516.84
2023-05-02T01:59:13.592Z,98510.73
2023-05-02T02:04:16.136Z,98512.33
2023-05-02T02:09:17.682Z,98512.95
2023-05-02T02:14:24.460Z,98510.98
2023-05-02T02:19:26.713Z,98515.55
2023-05-02T02:24:28.789Z,98515.14
2023-05-02T02:29:30.244Z,98516.04
2023-05-02T02:35:31.361Z,98512.84
2023-05-02T02:40:55.574Z,98511.77
2023-05-02T02:46:08.925Z,98509.11
2023-05-02T02:51:32.452Z,98509.39
2023-05-02T02:57:37.783Z,98509.05
2023-05-02T03:03:58.922Z,98516.93
2023-05-02T03:10:00.328Z,98520.66
2023-05-02T03:15:30.851Z,98517.91
2023-05-02T03:20:32.586Z,98513.60
2023-05-02T03:25:35.045Z,98520.54
2023-05-02T03:30:40.109Z,98517.25
2023-05-02T03:35:42.867Z,98518.39
2023-05-02T03:41:45.141Z,98519.03
2023-05-02T03:48:06.714Z,98522.86
2023-05-02T03:53:29.292Z,98528.27
2023-05-02T03:59:31.199Z,98536.64
2023-05-02T04:05:52.308Z,98542.10
2023-05-02T04:12:13.783Z,98549.73
2023-05-02T04:18:37.580Z,98556.71
2023-05-02T04:24:59.999Z,98555.77
2023-05-02T04:31:22.023Z,98559.47
2023-05-02T04:37:53.111Z,98566.34
2023-05-02T04:44:14.803Z,98572.09
2023-05-02T04:50:03.658Z,98578.94
2023-05-02T04:55:05.705Z,98575.79
2023-05-02T05:00:07.692Z,98576.79
2023-05-02T05:05:09.381Z,98582.16
2023-05-02T05:11:10.592Z,98575.02
2023-05-02T05:17:31.860Z,98576.75
2023-05-02T05:23:10.188Z,98584.63
2023-05-02T05:29:11.405Z,98580.58
2023-05-02T05:35:35.304Z,98581.27
2023-05-02T05:41:56.767Z,98585.23
2023-05-02T05:47:21.595Z,98592.68
2023-05-02T05:53:34.269Z,98594.08
2023-05-02T05:59:57.314Z,98601.69
2023-05-02T06:06:18.817Z,98607.87
2023-05-02T06:12:39.958Z,98616.30
2023-05-02T06:19:02.461Z,98625.61
2023-05-02T06:25:06.802Z,98634.63
2023-05-02T06:31:27.892Z,98644.60
2023-05-02T06:37:49.059Z,98648.29
2023-05-02T06:44:10.121Z,98657.55
2023-05-02T06:50:31.196Z,98663.06
2023-05-02T06:56:52.249Z,98666.66
2023-05-02T07:02:13.432Z,98674.09
2023-05-02T07:08:14.536Z,98669.80
2023-05-02T07:14:45.604Z,98677.59
2023-05-02T07:21:06.783Z,98685.21
2023-05-02T07:27:27.816Z,98683.94
2023-05-02T07:33:48.832Z,98690.56
2023-05-02T07:40:09.873Z,98701.30
2023-05-02T07:46:30.866Z,98707.86
2023-05-02T07:53:02.119Z,98712.14
2023-05-02T07:58:23.396Z,98704.39
2023-05-02T08:03:24.932Z,98710.47
2023-05-02T08:08:26.289Z,98715.20
2023-05-02T08:13:27.834Z,98720.95
2023-05-02T08:18:29.112Z,98718.11
2023-05-02T08:23:30.898Z,98715.44
2023-05-02T08:28:32.207Z,98718.08
2023-05-02T08:33:33.620Z,98722.10
2023-05-02T08:38:35.079Z,98724.92
2023-05-02T08:44:36.053Z,98724.55
2023-05-02T08:50:57.135Z,98722.63
2023-05-02T08:56:12.947Z,98723.70
2023-05-02T09:02:14.076Z,98729.58
2023-05-02T09:07:44.635Z,98724.14
2023-05-02T09:12:46.028Z,98736.83
2023-05-02T09:17:48.324Z,98734.16
2023-05-02T09:22:51.612Z,98743.66
2023-05-02T09:27:54.583Z,98751.06
2023-05-02T09:33:55.672Z,98753.23
2023-05-02T09:40:16.739Z,98760.31
2023-05-02T09:46:12.983Z,98765.56
2023-05-02T09:51:18.190Z,98765.27
2023-05-02T09:57:13.224Z,98766.73
2023-05-02T10:03:14.316Z,98764.13
2023-05-02T10:09:35.374Z,98776.73
2023-05-02T10:15:56.357Z,98781.92
2023-05-02T10:22:17.403Z,98785.49
2023-05-02T10:28:38.473Z,98790.81
2023-05-02T10:34:59.639Z,98796.03
2023-05-02T10:40:21.079Z,98799.23
2023-05-02T10:46:31.208Z,98799.24
2023-05-02T10:53:04.376Z,98811.17
2023-05-02T10:58:22.154Z,98812.11
2023-05-02T11:04:37.905Z,98812.77
2023-05-02T11:10:37.148Z,98816.85
2023-05-02T11:17:08.171Z,98815.20
2023-05-02T11:23:42.224Z,98827.45
2023-05-02T11:30:01.595Z,98827.88
2023-05-02T11:35:26.688Z,98833.41
2023-05-02T11:40:29.585Z,98834.82
2023-05-02T11:45:44.413Z,98837.86
2023-05-02T11:51:48.417Z,98846.39
2023-05-02T11:58:09.459Z,98857.06
2023-05-02T12:04:30.452Z,98859.80
2023-05-02T12:10:51.423Z,98864.39
2023-05-02T12:17:12.426Z,98867.37
2023-05-02T12:23:35.309Z,98872.46
2023-05-02T12:29:57.023Z,98879.39
2023-05-02T12:35:22.500Z,98879.00
2023-05-02T12:41:26.259Z,98882.61
2023-05-02T12:47:06.401Z,98877.64
2023-05-02T12:53:06.126Z,98881.05
2023-05-02T12:59:27.062Z,98877.08
2023-05-02T13:05:54.939Z,98883.98
2023-05-02T13:12:16.214Z,98885.46
2023-05-02T13:18:37.322Z,98881.69
2023-05-02T13:24:18.499Z,98883.86
2023-05-02T13:30:19.588Z,98890.88
2023-05-02T13:35:40.962Z,98893.32
2023-05-02T13:41:03.388Z,98893.17
2023-05-02T13:46:08.763Z,98899.42
2023-05-02T13:51:21.358Z,98900.79
2023-05-02T13:57:23.344Z,98907.02
2023-05-02T14:03:45.085Z,98907.98
2023-05-02T14:10:06.276Z,98911.64
2023-05-02T14:16:28.951Z,98911.46
2023-05-02T14:23:04.168Z,98922.15
2023-05-02T14:29:26.628Z,98932.38
2023-05-02T14:34:48.217Z,98941.29
2023-05-02T14:40:55.847Z,98944.71
2023-05-02T14:47:18.169Z,98952.83
2023-05-02T14:53:43.020Z,98958.02
2023-05-02T15:00:09.835Z,98957.50
2023-05-02T15:05:45.123Z,98949.67
2023-05-02T15:11:30.172Z,98954.27
2023-05-02T15:17:33.581Z,98969.61
2023-05-02T15:23:57.255Z,98985.44
2023-05-02T15:30:20.029Z,99000.20
2023-05-02T15:36:31.355Z,99011.86
2023-05-02T15:42:46.006Z,99023.61
2023-05-02T15:49:28.801Z,99023.54
2023-05-02T15:56:39.338Z,98990.30
2023-05-02T16:03:04.463Z,98993.02
2023-05-02T16:09:08.460Z,99010.59
2023-05-02T16:15:54.666Z,99021.48
2023-05-02T16:22:15.202Z,99014.91
2023-05-02T16:28:43.002Z,99009.39
2023-05-02T16:35:04.252Z,99023.10
2023-05-02T16:41:11.088Z,99043.16
2023-05-02T16:46:54.305Z,99053.27
2023-05-02T16:52:56.419Z,99055.68
2023-05-02T16:59:40.352Z,99050.91
2023-05-02T17:06:13.162Z,99015.15
2023-05-02T17:12:34.277Z,99005.37
2023-05-02T17:18:57.370Z,99005.97
2023-05-02T17:25:59.314Z,99018.48
2023-05-02T17:32:50.580Z,99045.30
2023-05-02T17:39:21.135Z,99068.55
2023-05-02T17:44:47.048Z,99077.10
2023-05-02T17:50:13.606Z,99085.33
2023-05-02T17:55:24.622Z,99085.05
2023-05-02T18:01:28.927Z,99089.40
2023-05-02T18:08:10.082Z,99107.95
2023-05-02T18:14:25.405Z,99117.03
2023-05-02T18:20:47.075Z,99129.12
2023-05-02T18:27:29.873Z,99131.42
2023-05-02T18:34:12.887Z,99132.76
2023-05-02T18:41:15.158Z,99144.78
2023-05-02T18:47:56.394Z,99157.84
2023-05-02T18:54:09.984Z,99161.67
2023-05-02T19:00:11.416Z,99174.55
2023-05-02T19:06:43.659Z,99180.09
2023-05-02T19:12:29.715Z,99175.04
2023-05-02T19:17:34.890Z,99177.89
2023-05-02T19:23:14.713Z,99175.73
2023-05-02T19:28:37.377Z,99175.17
2023-05-02T19:34:45.315Z,99175.95
2023-05-02T19:41:18.398Z,99174.55
2023-05-02T19:47:42.977Z,99173.13
2023-05-02T19:53:07.626Z,99174.04
2023-05-02T19:58:09.024Z,99178.70
2023-05-02T20:03:12.388Z,99169.81
2023-05-02T20:08:39.182Z,99171.65
2023-05-02T20:13:41.754Z,99181.30
2023-05-02T20:18:43.035Z,99191.00
2023-05-02T20:23:44.600Z,99196.62
2023-05-02T20:29:45.988Z,99203.47
2023-05-02T20:36:07.059Z,99209.08
2023-05-02T20:42:28.043Z,99210.56
2023-05-02T20:48:39.066Z,99218.88
2023-05-02T20:53:40.569Z,99218.66
2023-05-02T20:59:41.673Z,99220.96
2023-05-02T21:06:02.950Z,99221.77
2023-05-02T21:12:26.445Z,99229.09
2023-05-02T21:18:47.456Z,99230.56
2023-05-02T21:25:08.412Z,99232.64
2023-05-02T21:31:29.647Z,99237.28
2023-05-02T21:37:50.755Z,99247.25
2023-05-02T21:43:12.937Z,99249.69
2023-05-02T21:48:34.398Z,99252.20
2023-05-02T21:54:35.790Z,99256.72
2023-05-02T22:00:56.803Z,99261.80
2023-05-02T22:07:17.903Z,99261.95
2023-05-02T22:13:38.930Z,99263.30
2023-05-02T22:19:59.950Z,99267.52
2023-05-02T22:26:21.140Z,99268.06
2023-05-02T22:32:42.572Z,99274.95
2023-05-02T22:38:04.391Z,99274.31
2023-05-02T22:43:05.841Z,99273.99
2023-05-02T22:48:07.403Z,99276.30
2023-05-02T22:53:08.987Z,99281.75
2023-05-02T22:58:11.109Z,99282.20
2023-05-02T23:03:12.855Z,99285.15
2023-05-02T23:08:14.888Z,99281.98
2023-05-02T23:13:20.373Z,99281.26
2023-05-02T23:19:21.707Z,99282.51
2023-05-02T23:24:36.702Z,99279.04
2023-05-02T23:29:38.124Z,99276.02
2023-05-02T23:34:42.535Z,99274.00
2023-05-02T23:39:51.900Z,99275.30
2023-05-02T23:45:12.306Z,99272.88
2023-05-02T23:51:15.994Z,99270.93
2023-05-02T23:56:19.621Z,99269.90
